createdAt,value
2023-02-26T00:00:07.686Z,0.00
2023-02-26T00:01:07.725Z,0.00
2023-02-26T00:02:07.795Z,0.00
2023-02-26T00:03:07.782Z,0.00
2023-02-26T00:04:07.797Z,0.00
2023-02-26T00:05:08.117Z,0.00
2023-02-26T00:06:07.838Z,0.00
2023-02-26T00:07:07.874Z,0.00
2023-02-26T00:08:07.906Z,0.00
2023-02-26T00:09:07.947Z,0.00
2023-02-26T00:10:07.949Z,0.00
2023-02-26T00:11:08.003Z,0.00
2023-02-26T00:12:08.307Z,0.00
2023-02-26T00:13:08.040Z,0.00
2023-02-26T00:14:08.153Z,0.00
2023-02-26T00:15:08.095Z,0.00
2023-02-26T00:16:08.111Z,0.00
2023-02-26T00:17:08.349Z,0.00
2023-02-26T00:18:08.177Z,0.00
2023-02-26T00:20:08.533Z,0.00
2023-02-26T00:21:08.272Z,0.00
2023-02-26T00:22:08.283Z,0.00
2023-02-26T00:23:08.304Z,0.00
2023-02-26T00:24:08.341Z,0.00
2023-02-26T00:25:08.363Z,0.00
2023-02-26T00:26:08.388Z,0.00
2023-02-26T00:27:08.756Z,0.00
2023-02-26T00:28:08.445Z,0.00
2023-02-26T00:29:08.477Z,0.00
2023-02-26T00:30:08.520Z,0.00
2023-02-26T00:31:08.616Z,0.00
2023-02-26T00:32:08.641Z,0.00
2023-02-26T00:33:08.589Z,0.00
2023-02-26T00:34:08.921Z,0.00
2023-02-26T00:35:08.640Z,0.00
2023-02-26T00:36:08.668Z,0.00
2023-02-26T00:37:08.689Z,0.00
2023-02-26T00:38:08.770Z,0.00
2023-02-26T00:39:08.756Z,0.00
2023-02-26T00:40:08.773Z,0.00
2023-02-26T00:41:09.206Z,0.00
2023-02-26T00:43:08.861Z,0.00
2023-02-26T00:44:08.886Z,0.00
2023-02-26T00:45:08.920Z,0.00
2023-02-26T00:46:10.122Z,0.00
2023-02-26T00:47:08.974Z,0.00
2023-02-26T00:48:08.993Z,0.00
2023-02-26T00:49:09.044Z,0.00
2023-02-26T00:50:09.049Z,0.00
2023-02-26T00:51:09.069Z,0.00
2023-02-26T00:52:09.120Z,0.00
2023-02-26T00:54:09.484Z,0.00
2023-02-26T00:55:09.188Z,0.00
2023-02-26T00:56:09.647Z,0.00
2023-02-26T00:58:09.267Z,0.00
2023-02-26T00:59:09.297Z,0.00
2023-02-26T01:00:09.732Z,0.00
2023-02-26T01:01:09.357Z,0.00
2023-02-26T01:02:09.396Z,0.00
2023-02-26T01:04:09.464Z,0.00
2023-02-26T01:05:09.464Z,0.00
2023-02-26T01:06:09.502Z,0.00
2023-02-26T01:07:09.512Z,0.00
2023-02-26T01:09:09.623Z,0.00
2023-02-26T01:10:09.644Z,0.00
2023-02-26T01:11:09.622Z,0.00
2023-02-26T01:12:09.949Z,0.00
2023-02-26T01:13:09.690Z,0.00
2023-02-26T01:14:09.723Z,0.00
2023-02-26T01:15:09.779Z,0.00
2023-02-26T01:16:09.782Z,0.00
2023-02-26T01:17:09.782Z,0.00
2023-02-26T01:19:10.114Z,0.00
2023-02-26T01:20:09.861Z,0.00
2023-02-26T01:21:09.906Z,0.00
2023-02-26T01:22:09.922Z,0.00
2023-02-26T01:23:10.055Z,0.00
2023-02-26T01:24:09.981Z,0.00
2023-02-26T01:25:10.044Z,0.00
2023-02-26T01:26:10.029Z,0.00
2023-02-26T01:27:10.117Z,0.00
2023-02-26T01:28:10.103Z,0.00
2023-02-26T01:29:10.114Z,0.00
2023-02-26T01:30:10.261Z,0.00
2023-02-26T01:31:10.262Z,0.00
2023-02-26T01:32:10.699Z,0.00
2023-02-26T01:33:10.235Z,0.00
2023-02-26T01:34:10.277Z,0.00
2023-02-26T01:35:10.294Z,0.00
2023-02-26T01:36:10.309Z,0.00
2023-02-26T01:37:10.349Z,0.00
2023-02-26T01:38:10.388Z,0.00
2023-02-26T01:39:10.717Z,0.00
2023-02-26T01:40:11.166Z,0.00
2023-02-26T01:41:10.453Z,0.00
2023-02-26T01:42:10.486Z,0.00
2023-02-26T01:43:10.494Z,0.00
2023-02-26T01:44:10.625Z,0.00
2023-02-26T01:45:10.552Z,0.00
2023-02-26T01:46:10.925Z,0.00
2023-02-26T01:47:10.604Z,0.00
2023-02-26T01:48:10.684Z,0.00
2023-02-26T01:49:10.764Z,0.00
2023-02-26T01:50:10.699Z,0.00
2023-02-26T01:51:10.842Z,0.00
2023-02-26T01:52:10.750Z,0.00
2023-02-26T01:53:11.074Z,0.00
2023-02-26T01:55:10.826Z,0.00
2023-02-26T01:56:10.852Z,0.00
2023-02-26T01:57:10.879Z,0.00
2023-02-26T01:58:10.909Z,0.00
2023-02-26T01:59:10.939Z,0.00
2023-02-26T02:00:11.260Z,0.00
2023-02-26T02:01:10.989Z,0.00
2023-02-26T02:02:11.145Z,0.00
2023-02-26T02:03:11.240Z,0.00
2023-02-26T02:04:11.072Z,0.00
2023-02-26T02:05:11.097Z,0.00
2023-02-26T02:07:11.481Z,0.00
2023-02-26T02:08:11.185Z,0.00
2023-02-26T02:09:11.207Z,0.00
2023-02-26T02:10:11.237Z,0.00
2023-02-26T02:11:11.262Z,0.00
2023-02-26T02:12:11.294Z,0.00
2023-02-26T02:13:11.651Z,0.00
2023-02-26T02:14:11.395Z,0.00
2023-02-26T02:15:11.376Z,0.00
2023-02-26T02:16:11.443Z,0.00
2023-02-26T02:17:11.430Z,0.00
2023-02-26T02:18:11.557Z,0.00
2023-02-26T02:19:11.493Z,0.00
2023-02-26T02:20:11.513Z,0.00
2023-02-26T02:21:11.539Z,0.00
2023-02-26T02:22:11.567Z,0.00
2023-02-26T02:23:11.612Z,0.00
2023-02-26T02:24:11.673Z,0.00
2023-02-26T02:25:11.945Z,0.00
2023-02-26T02:26:11.668Z,0.00
2023-02-26T02:27:11.711Z,0.00
2023-02-26T02:28:11.721Z,0.00
2023-02-26T02:29:11.765Z,0.00
2023-02-26T02:30:11.787Z,0.00
2023-02-26T02:31:11.961Z,0.00
2023-02-26T02:33:12.509Z,0.00
2023-02-26T02:34:11.886Z,0.00
2023-02-26T02:35:11.909Z,0.00
2023-02-26T02:36:11.945Z,0.00
2023-02-26T02:37:11.968Z,0.00
2023-02-26T02:39:12.045Z,0.00
2023-02-26T02:40:12.138Z,0.00
2023-02-26T02:41:12.086Z,0.00
2023-02-26T02:42:12.098Z,0.00
2023-02-26T02:43:12.285Z,0.00
2023-02-26T02:44:12.201Z,0.00
2023-02-26T02:45:12.480Z,0.00
2023-02-26T02:46:12.274Z,0.00
2023-02-26T02:47:12.238Z,0.00
2023-02-26T02:48:12.300Z,0.00
2023-02-26T02:49:12.312Z,0.00
2023-02-26T02:51:12.767Z,0.00
2023-02-26T02:52:12.527Z,0.00
2023-02-26T02:53:12.584Z,0.00
2023-02-26T02:54:12.754Z,0.00
2023-02-26T02:55:12.483Z,0.00
2023-02-26T02:56:12.490Z,0.00
2023-02-26T02:58:12.569Z,0.00
2023-02-26T02:59:12.872Z,0.00
2023-02-26T03:00:12.597Z,0.00
2023-02-26T03:01:12.708Z,0.00
2023-02-26T03:02:12.652Z,0.00
2023-02-26T03:03:12.676Z,0.00
2023-02-26T03:05:13.052Z,0.00
2023-02-26T03:06:12.757Z,0.00
2023-02-26T03:07:12.787Z,0.00
2023-02-26T03:08:12.916Z,0.00
2023-02-26T03:09:12.840Z,0.00
2023-02-26T03:11:13.219Z,0.00
2023-02-26T03:12:12.920Z,0.00
2023-02-26T03:13:12.979Z,0.00
2023-02-26T03:14:12.981Z,0.00
2023-02-26T03:15:13.013Z,0.00
2023-02-26T03:16:13.047Z,0.00
2023-02-26T03:17:13.361Z,0.00
2023-02-26T03:18:13.090Z,0.00
2023-02-26T03:19:13.116Z,0.00
2023-02-26T03:22:13.202Z,0.00
2023-02-26T03:23:13.243Z,0.00
2023-02-26T03:24:13.551Z,0.00
2023-02-26T03:25:13.308Z,0.00
2023-02-26T03:26:13.309Z,0.00
2023-02-26T03:27:13.351Z,0.00
2023-02-26T03:28:13.356Z,0.00
2023-02-26T03:29:13.391Z,0.00
2023-02-26T03:30:13.732Z,0.00
2023-02-26T03:32:13.804Z,0.00
2023-02-26T03:33:13.495Z,0.00
2023-02-26T03:34:13.526Z,0.00
2023-02-26T03:36:13.659Z,0.00
2023-02-26T03:38:13.965Z,0.00
2023-02-26T03:39:13.661Z,0.00
2023-02-26T03:40:13.708Z,0.00
2023-02-26T03:41:13.716Z,0.00
2023-02-26T03:42:13.792Z,0.00
2023-02-26T03:43:13.799Z,0.00
2023-02-26T03:44:14.105Z,0.00
2023-02-26T03:45:13.828Z,0.00
2023-02-26T03:46:13.904Z,0.00
2023-02-26T03:48:14.007Z,0.00
2023-02-26T03:49:14.078Z,0.00
2023-02-26T03:50:13.960Z,0.00
2023-02-26T03:52:14.325Z,0.00
2023-02-26T03:53:14.049Z,0.00
2023-02-26T03:54:14.070Z,0.00
2023-02-26T03:55:14.100Z,0.00
2023-02-26T03:56:14.227Z,0.00
2023-02-26T03:57:14.151Z,0.00
2023-02-26T03:58:14.178Z,0.00
2023-02-26T03:59:14.522Z,0.00
2023-02-26T04:00:14.230Z,0.00
2023-02-26T04:01:14.253Z,0.00
2023-02-26T04:02:14.360Z,0.00
2023-02-26T04:03:14.312Z,0.00
2023-02-26T04:04:14.388Z,0.00
2023-02-26T04:06:14.698Z,0.00
2023-02-26T04:07:14.429Z,0.00
2023-02-26T04:09:16.182Z,0.00
2023-02-26T04:10:14.647Z,0.00
2023-02-26T04:11:14.589Z,0.00
2023-02-26T04:12:14.612Z,0.00
2023-02-26T04:13:14.882Z,0.00
2023-02-26T04:14:14.614Z,0.00
2023-02-26T04:15:14.759Z,0.00
2023-02-26T04:16:14.771Z,0.00
2023-02-26T04:17:14.688Z,0.00
2023-02-26T04:18:14.724Z,0.00
2023-02-26T04:19:14.746Z,0.00
2023-02-26T04:21:14.812Z,0.00
2023-02-26T04:22:14.832Z,0.00
2023-02-26T04:23:14.854Z,0.00
2023-02-26T04:24:14.881Z,0.00
2023-02-26T04:25:14.909Z,0.00
2023-02-26T04:26:14.962Z,0.00
2023-02-26T04:27:15.272Z,0.00
2023-02-26T04:28:14.994Z,0.00
2023-02-26T04:29:15.013Z,0.00
2023-02-26T04:30:15.051Z,0.00
2023-02-26T04:31:15.258Z,0.00
2023-02-26T04:32:15.308Z,0.00
2023-02-26T04:33:15.141Z,0.00
2023-02-26T04:34:15.446Z,0.00
2023-02-26T04:35:15.179Z,0.00
2023-02-26T04:36:15.404Z,0.00
2023-02-26T04:37:15.252Z,0.00
2023-02-26T04:38:15.286Z,0.00
2023-02-26T04:40:15.310Z,0.00
2023-02-26T04:42:15.662Z,0.00
2023-02-26T04:43:15.391Z,0.00
2023-02-26T04:44:15.420Z,0.00
2023-02-26T04:45:15.628Z,0.00
2023-02-26T04:46:15.615Z,0.00
2023-02-26T04:47:15.587Z,0.00
2023-02-26T04:49:16.024Z,0.00
2023-02-26T04:50:15.584Z,0.00
2023-02-26T04:51:15.610Z,0.00
2023-02-26T04:52:15.739Z,0.00
2023-02-26T04:53:15.659Z,0.00
2023-02-26T04:54:15.685Z,0.00
2023-02-26T04:55:15.721Z,0.00
2023-02-26T04:56:16.078Z,0.00
2023-02-26T04:57:15.790Z,0.00
2023-02-26T04:58:15.876Z,0.00
2023-02-26T05:00:15.850Z,0.00
2023-02-26T05:01:15.882Z,0.00
2023-02-26T05:02:15.897Z,0.00
2023-02-26T05:03:16.250Z,0.00
2023-02-26T05:04:16.012Z,0.00
2023-02-26T05:05:15.991Z,0.00
2023-02-26T05:06:16.039Z,0.00
2023-02-26T05:07:16.045Z,0.00
2023-02-26T05:08:16.095Z,0.00
2023-02-26T05:09:16.092Z,0.00
2023-02-26T05:10:16.432Z,0.00
2023-02-26T05:11:16.146Z,0.00
2023-02-26T05:12:16.174Z,0.00
2023-02-26T05:13:16.303Z,0.00
2023-02-26T05:14:16.224Z,0.00
2023-02-26T05:15:16.359Z,0.00
2023-02-26T05:16:16.333Z,0.00
2023-02-26T05:17:16.626Z,0.00
2023-02-26T05:18:16.436Z,0.00
2023-02-26T05:19:16.404Z,0.00
2023-02-26T05:20:16.420Z,0.00
2023-02-26T05:21:16.492Z,0.00
2023-02-26T05:22:16.445Z,0.00
2023-02-26T05:23:16.524Z,0.00
2023-02-26T05:24:16.821Z,0.00
2023-02-26T05:25:16.534Z,0.00
2023-02-26T05:26:16.606Z,0.00
2023-02-26T05:27:16.582Z,0.00
2023-02-26T05:28:16.606Z,0.00
2023-02-26T05:29:16.643Z,0.00
2023-02-26T05:30:16.989Z,0.00
2023-02-26T05:31:17.124Z,0.00
2023-02-26T05:32:16.796Z,0.00
2023-02-26T05:33:16.755Z,0.00
2023-02-26T05:34:16.776Z,0.00
2023-02-26T05:35:16.875Z,0.00
2023-02-26T05:36:16.971Z,0.00
2023-02-26T05:37:16.934Z,0.00
2023-02-26T05:38:17.277Z,0.00
2023-02-26T05:39:16.898Z,0.00
2023-02-26T05:40:17.032Z,0.00
2023-02-26T05:41:16.964Z,0.00
2023-02-26T05:42:16.982Z,0.00
2023-02-26T05:43:17.119Z,0.00
2023-02-26T05:44:17.041Z,0.00
2023-02-26T05:45:17.363Z,0.00
2023-02-26T05:46:17.313Z,0.00
2023-02-26T05:47:17.143Z,0.00
2023-02-26T05:48:17.147Z,0.00
2023-02-26T05:49:17.181Z,0.00
2023-02-26T05:50:17.220Z,0.00
2023-02-26T05:51:17.247Z,0.00
2023-02-26T05:52:17.565Z,0.00
2023-02-26T05:53:17.301Z,0.00
2023-02-26T05:54:17.312Z,0.00
2023-02-26T05:56:18.005Z,0.00
2023-02-26T05:57:17.396Z,0.00
2023-02-26T05:58:17.412Z,0.00
2023-02-26T05:59:18.754Z,0.00
2023-02-26T06:00:17.462Z,0.00
2023-02-26T06:01:17.522Z,4.00
2023-02-26T06:02:17.585Z,4.00
2023-02-26T06:03:17.596Z,0.00
2023-02-26T06:05:17.606Z,4.00
2023-02-26T06:07:17.685Z,4.00
2023-02-26T06:08:17.676Z,4.00
2023-02-26T06:09:17.701Z,8.00
2023-02-26T06:10:17.731Z,8.00
2023-02-26T06:11:17.760Z,12.00
2023-02-26T06:12:18.094Z,12.00
2023-02-26T06:13:17.812Z,16.00
2023-02-26T06:14:17.840Z,20.00
2023-02-26T06:15:17.860Z,24.00
2023-02-26T06:16:18.030Z,24.00
2023-02-26T06:17:17.929Z,32.00
2023-02-26T06:18:18.244Z,36.00
2023-02-26T06:19:17.989Z,40.00
2023-02-26T06:20:17.997Z,44.00
2023-02-26T06:21:18.031Z,52.00
2023-02-26T06:22:18.052Z,60.00
2023-02-26T06:23:18.109Z,64.00
2023-02-26T06:24:18.410Z,72.00
2023-02-26T06:25:18.135Z,76.00
2023-02-26T06:26:18.161Z,88.00
2023-02-26T06:27:18.204Z,96.00
2023-02-26T06:28:18.215Z,104.00
2023-02-26T06:29:18.243Z,116.00
2023-02-26T06:30:18.290Z,128.00
2023-02-26T06:31:18.709Z,136.00
2023-02-26T06:32:18.442Z,152.00
2023-02-26T06:33:18.366Z,164.00
2023-02-26T06:34:18.378Z,172.00
2023-02-26T06:35:18.412Z,192.00
2023-02-26T06:36:18.436Z,204.00
2023-02-26T06:37:18.465Z,216.00
2023-02-26T06:38:18.796Z,232.00
2023-02-26T06:39:18.544Z,244.00
2023-02-26T06:40:18.543Z,260.00
2023-02-26T06:41:18.576Z,276.00
2023-02-26T06:43:18.733Z,304.00
2023-02-26T06:44:18.659Z,320.00
2023-02-26T06:46:19.001Z,348.00
2023-02-26T06:47:18.735Z,364.00
2023-02-26T06:48:18.863Z,380.00
2023-02-26T06:50:18.909Z,408.00
2023-02-26T06:51:18.881Z,428.00
2023-02-26T06:52:18.866Z,444.00
2023-02-26T06:53:19.205Z,456.00
2023-02-26T06:54:18.938Z,468.00
2023-02-26T06:55:19.022Z,480.00
2023-02-26T06:56:18.976Z,492.00
2023-02-26T06:57:19.000Z,512.00
2023-02-26T06:58:19.068Z,524.00
2023-02-26T06:59:19.061Z,536.00
2023-02-26T07:01:19.498Z,564.00
2023-02-26T07:02:19.176Z,580.00
2023-02-26T07:03:19.192Z,592.00
2023-02-26T07:04:20.665Z,608.00
2023-02-26T07:05:19.246Z,620.00
2023-02-26T07:06:38.562Z,632.00
2023-02-26T07:07:19.574Z,644.00
2023-02-26T07:08:19.299Z,640.00
2023-02-26T07:10:19.355Z,668.00
2023-02-26T07:11:19.409Z,680.00
2023-02-26T07:12:19.404Z,692.00
2023-02-26T07:13:19.430Z,708.00
2023-02-26T07:14:19.815Z,724.00
2023-02-26T07:15:19.481Z,736.00
2023-02-26T07:16:19.562Z,756.00
2023-02-26T07:17:19.551Z,768.00
2023-02-26T07:18:19.562Z,780.00
2023-02-26T07:20:19.615Z,804.00
2023-02-26T07:21:19.677Z,820.00
2023-02-26T07:22:21.751Z,828.00
2023-02-26T07:23:19.695Z,840.00
2023-02-26T07:24:19.753Z,848.00
2023-02-26T07:26:19.968Z,868.00
2023-02-26T07:27:20.157Z,876.00
2023-02-26T07:28:19.839Z,892.00
2023-02-26T07:30:19.896Z,908.00
2023-02-26T07:31:20.145Z,920.00
2023-02-26T07:32:20.071Z,928.00
2023-02-26T07:33:19.993Z,936.00
2023-02-26T07:34:20.297Z,948.00
2023-02-26T07:35:20.087Z,956.00
2023-02-26T07:36:20.069Z,964.00
2023-02-26T07:37:20.330Z,976.00
2023-02-26T07:38:20.118Z,984.00
2023-02-26T07:39:20.135Z,996.00
2023-02-26T07:40:20.160Z,1012.00
2023-02-26T07:42:20.506Z,1024.00
2023-02-26T07:43:20.252Z,1032.00
2023-02-26T07:44:20.267Z,1040.00
2023-02-26T07:45:20.294Z,1052.00
2023-02-26T07:46:20.461Z,1064.00
2023-02-26T07:48:20.664Z,1080.00
2023-02-26T07:49:20.388Z,1084.00
2023-02-26T07:50:20.413Z,1092.00
2023-02-26T07:51:20.449Z,1104.00
2023-02-26T07:52:20.468Z,1108.00
2023-02-26T07:53:20.499Z,1120.00
2023-02-26T07:54:20.538Z,1124.00
2023-02-26T07:55:20.856Z,1136.00
2023-02-26T07:56:20.622Z,1140.00
2023-02-26T07:57:20.612Z,1148.00
2023-02-26T07:58:20.643Z,1156.00
2023-02-26T07:59:20.695Z,1164.00
2023-02-26T08:00:20.686Z,1188.00
2023-02-26T08:01:20.769Z,1208.00
2023-02-26T08:04:21.197Z,1260.00
2023-02-26T08:05:20.827Z,1256.00
2023-02-26T08:06:20.856Z,1252.00
2023-02-26T08:07:20.877Z,1248.00
2023-02-26T08:08:20.914Z,1252.00
2023-02-26T08:09:20.959Z,1256.00
2023-02-26T08:11:21.309Z,1280.00
2023-02-26T08:12:21.001Z,1280.00
2023-02-26T08:13:21.045Z,1260.00
2023-02-26T08:14:21.067Z,1256.00
2023-02-26T08:15:21.150Z,1264.00
2023-02-26T08:16:21.113Z,1272.00
2023-02-26T08:17:21.143Z,1268.00
2023-02-26T08:18:21.484Z,1284.00
2023-02-26T08:19:21.195Z,1300.00
2023-02-26T08:20:21.239Z,1300.00
2023-02-26T08:21:21.253Z,1280.00
2023-02-26T08:22:21.280Z,1288.00
2023-02-26T08:23:21.305Z,1292.00
2023-02-26T08:24:21.340Z,1300.00
2023-02-26T08:25:21.383Z,1304.00
2023-02-26T08:26:21.394Z,1300.00
2023-02-26T08:27:21.424Z,1300.00
2023-02-26T08:28:21.438Z,1304.00
2023-02-26T08:29:21.503Z,1308.00
2023-02-26T08:30:21.492Z,1312.00
2023-02-26T08:31:21.946Z,1320.00
2023-02-26T08:32:21.638Z,1324.00
2023-02-26T08:33:22.983Z,1324.00
2023-02-26T08:34:21.601Z,1332.00
2023-02-26T08:35:21.631Z,1344.00
2023-02-26T08:36:21.658Z,1348.00
2023-02-26T08:38:21.709Z,1352.00
2023-02-26T08:39:21.736Z,1352.00
2023-02-26T08:40:21.815Z,1356.00
2023-02-26T08:41:21.790Z,1356.00
2023-02-26T08:43:22.141Z,1372.00
2023-02-26T08:44:21.878Z,1372.00
2023-02-26T08:45:21.904Z,1376.00
2023-02-26T08:46:21.956Z,1376.00
2023-02-26T08:47:28.777Z,1376.00
2023-02-26T08:48:21.982Z,1380.00
2023-02-26T08:49:22.313Z,1384.00
2023-02-26T08:50:22.039Z,1388.00
2023-02-26T08:51:22.059Z,1400.00
2023-02-26T08:52:22.107Z,1400.00
2023-02-26T08:53:22.128Z,1412.00
2023-02-26T08:54:22.177Z,1420.00
2023-02-26T08:55:22.179Z,1408.00
2023-02-26T08:56:22.216Z,1408.00
2023-02-26T08:57:22.250Z,1404.00
2023-02-26T08:58:22.256Z,1416.00
2023-02-26T08:59:22.280Z,1420.00
2023-02-26T09:00:22.303Z,1428.00
2023-02-26T09:01:22.409Z,1420.00
2023-02-26T09:03:22.409Z,1412.00
2023-02-26T09:04:22.427Z,1420.00
2023-02-26T09:05:22.444Z,1424.00
2023-02-26T09:06:22.469Z,1428.00
2023-02-26T09:07:22.538Z,1432.00
2023-02-26T09:08:22.538Z,1436.00
2023-02-26T09:09:22.849Z,1444.00
2023-02-26T09:10:22.600Z,1444.00
2023-02-26T09:11:22.760Z,1444.00
2023-02-26T09:12:22.625Z,1452.00
2023-02-26T09:14:22.694Z,1444.00
2023-02-26T09:15:22.724Z,1452.00
2023-02-26T09:16:23.622Z,1460.00
2023-02-26T09:17:22.766Z,1468.00
2023-02-26T09:18:22.800Z,1472.00
2023-02-26T09:19:22.842Z,1476.00
2023-02-26T09:20:23.154Z,1476.00
2023-02-26T09:21:22.872Z,1480.00
2023-02-26T09:22:22.954Z,1512.00
2023-02-26T09:23:23.244Z,1472.00
2023-02-26T09:24:22.952Z,1284.00
2023-02-26T09:25:22.981Z,2012.00
2023-02-26T09:26:23.215Z,2048.00
2023-02-26T09:28:23.082Z,1668.00
2023-02-26T09:29:23.100Z,1704.00
2023-02-26T09:30:23.424Z,1704.00
2023-02-26T09:31:23.331Z,1780.00
2023-02-26T09:32:23.330Z,1768.00
2023-02-26T09:34:23.241Z,1864.00
2023-02-26T09:35:23.291Z,1876.00
2023-02-26T09:36:23.693Z,1896.00
2023-02-26T09:37:23.614Z,1884.00
2023-02-26T09:38:23.345Z,1824.00
2023-02-26T09:39:23.366Z,1744.00
2023-02-26T09:40:23.389Z,1736.00
2023-02-26T09:41:23.421Z,1772.00
2023-02-26T09:42:23.450Z,1900.00
2023-02-26T09:43:23.487Z,2204.00
2023-02-26T09:44:23.809Z,2320.00
2023-02-26T09:45:23.531Z,2212.00
2023-02-26T09:46:23.857Z,2332.00
2023-02-26T09:47:23.592Z,2676.00
2023-02-26T09:48:23.614Z,2952.00
2023-02-26T09:49:23.645Z,2736.00
2023-02-26T09:50:23.675Z,2572.00
2023-02-26T09:51:23.723Z,2628.00
2023-02-26T09:53:23.811Z,2448.00
2023-02-26T09:55:23.808Z,2872.00
2023-02-26T09:56:24.158Z,3092.00
2023-02-26T09:57:24.161Z,3144.00
2023-02-26T09:59:23.925Z,3108.00
2023-02-26T10:00:23.946Z,3008.00
2023-02-26T10:01:24.019Z,2540.00
2023-02-26T10:02:24.006Z,2132.00
2023-02-26T10:03:24.332Z,2084.00
2023-02-26T10:04:24.105Z,2268.00
2023-02-26T10:05:24.086Z,2472.00
2023-02-26T10:06:24.583Z,2788.00
2023-02-26T10:07:24.193Z,2936.00
2023-02-26T10:08:24.200Z,2976.00
2023-02-26T10:11:24.256Z,3000.00
2023-02-26T10:13:24.313Z,2756.00
2023-02-26T10:14:24.346Z,3120.00
2023-02-26T10:15:24.355Z,3332.00
2023-02-26T10:16:24.759Z,2904.00
2023-02-26T10:17:24.420Z,2244.00
2023-02-26T10:18:24.475Z,2268.00
2023-02-26T10:19:24.476Z,2092.00
2023-02-26T10:20:24.567Z,2228.00
2023-02-26T10:21:24.534Z,2376.00
2023-02-26T10:22:24.558Z,3016.00
2023-02-26T10:23:24.613Z,3608.00
2023-02-26T10:24:24.601Z,3372.00
2023-02-26T10:25:24.643Z,3372.00
2023-02-26T10:26:25.121Z,3652.00
2023-02-26T10:27:24.689Z,3532.00
2023-02-26T10:28:24.743Z,3520.00
2023-02-26T10:29:25.064Z,3156.00
2023-02-26T10:30:24.777Z,3056.00
2023-02-26T10:31:25.298Z,3112.00
2023-02-26T10:32:24.929Z,3348.00
2023-02-26T10:33:24.850Z,3128.00
2023-02-26T10:34:24.876Z,2820.00
2023-02-26T10:35:24.934Z,2592.00
2023-02-26T10:36:25.275Z,2768.00
2023-02-26T10:37:25.063Z,3168.00
2023-02-26T10:38:24.991Z,3220.00
2023-02-26T10:40:25.096Z,3000.00
2023-02-26T10:41:25.584Z,2800.00
2023-02-26T10:42:25.094Z,2760.00
2023-02-26T10:44:25.159Z,2776.00
2023-02-26T10:45:25.182Z,2568.00
2023-02-26T10:46:25.203Z,2560.00
2023-02-26T10:47:25.240Z,2588.00
2023-02-26T10:48:25.374Z,2544.00
2023-02-26T10:49:25.290Z,2264.00
2023-02-26T10:51:25.970Z,2508.00
2023-02-26T10:52:25.412Z,2324.00
2023-02-26T10:55:25.806Z,1984.00
2023-02-26T10:56:25.505Z,1764.00
2023-02-26T10:57:25.517Z,2036.00
2023-02-26T10:58:25.850Z,2084.00
2023-02-26T10:59:25.671Z,2132.00
2023-02-26T11:02:25.680Z,2004.00
2023-02-26T11:03:25.681Z,1928.00
2023-02-26T11:04:25.713Z,2112.00
2023-02-26T11:05:26.060Z,1840.00
2023-02-26T11:06:25.765Z,1836.00
2023-02-26T11:07:25.799Z,2104.00
2023-02-26T11:08:25.830Z,2372.00
2023-02-26T11:09:25.851Z,2252.00
2023-02-26T11:11:26.661Z,2132.00
2023-02-26T11:12:25.956Z,2452.00
2023-02-26T11:13:25.964Z,2296.00
2023-02-26T11:14:28.143Z,2124.00
2023-02-26T11:15:26.032Z,1976.00
2023-02-26T11:16:26.057Z,1932.00
2023-02-26T11:17:26.076Z,1860.00
2023-02-26T11:18:26.412Z,2088.00
2023-02-26T11:19:26.133Z,2192.00
2023-02-26T11:21:26.565Z,2016.00
2023-02-26T11:22:26.519Z,1808.00
2023-02-26T11:23:26.246Z,1712.00
2023-02-26T11:24:27.078Z,1724.00
2023-02-26T11:25:26.600Z,1984.00
2023-02-26T11:26:26.335Z,1796.00
2023-02-26T11:27:26.624Z,1812.00
2023-02-26T11:29:26.447Z,1768.00
2023-02-26T11:30:26.514Z,1816.00
2023-02-26T11:31:27.213Z,1888.00
2023-02-26T11:32:26.602Z,2128.00
2023-02-26T11:33:26.526Z,1876.00
2023-02-26T11:34:26.567Z,1872.00
2023-02-26T11:35:26.634Z,1880.00
2023-02-26T11:36:26.946Z,1920.00
2023-02-26T11:39:27.012Z,1948.00
2023-02-26T11:40:26.725Z,2216.00
2023-02-26T11:41:27.103Z,2012.00
2023-02-26T11:42:26.805Z,2216.00
2023-02-26T11:43:26.797Z,2188.00
2023-02-26T11:44:26.832Z,2088.00
2023-02-26T11:45:27.181Z,1904.00
2023-02-26T11:46:26.915Z,1976.00
2023-02-26T11:47:26.934Z,2048.00
2023-02-26T11:48:26.938Z,2140.00
2023-02-26T11:49:26.973Z,2120.00
2023-02-26T11:50:26.995Z,2100.00
2023-02-26T11:51:27.772Z,2072.00
2023-02-26T11:52:27.047Z,2024.00
2023-02-26T11:53:27.091Z,1976.00
2023-02-26T11:54:27.113Z,1964.00
2023-02-26T11:55:27.597Z,2028.00
2023-02-26T11:56:27.240Z,2144.00
2023-02-26T11:57:27.500Z,2120.00
2023-02-26T11:58:27.220Z,2060.00
2023-02-26T11:59:27.243Z,2036.00
2023-02-26T12:00:27.272Z,2192.00
2023-02-26T12:02:27.386Z,2092.00
2023-02-26T12:03:27.412Z,2208.00
2023-02-26T12:04:27.921Z,2216.00
2023-02-26T12:05:27.533Z,2128.00
2023-02-26T12:07:27.774Z,1876.00
2023-02-26T12:08:27.779Z,1828.00
2023-02-26T12:09:27.714Z,1924.00
2023-02-26T12:10:28.237Z,1896.00
2023-02-26T12:11:28.415Z,1888.00
2023-02-26T12:12:27.831Z,1876.00
2023-02-26T12:14:27.713Z,1872.00
2023-02-26T12:15:27.774Z,1872.00
2023-02-26T12:16:27.714Z,1764.00
2023-02-26T12:17:27.762Z,1872.00
2023-02-26T12:18:27.800Z,1680.00
2023-02-26T12:19:27.815Z,1888.00
2023-02-26T12:20:27.842Z,1928.00
2023-02-26T12:21:28.319Z,1952.00
2023-02-26T12:22:27.889Z,1988.00
2023-02-26T12:23:27.910Z,2036.00
2023-02-26T12:24:27.981Z,2048.00
2023-02-26T12:25:27.971Z,1900.00
2023-02-26T12:26:28.005Z,1812.00
2023-02-26T12:27:28.069Z,1756.00
2023-02-26T12:28:28.068Z,1952.00
2023-02-26T12:30:28.214Z,1992.00
2023-02-26T12:31:28.774Z,2020.00
2023-02-26T12:32:28.233Z,2024.00
2023-02-26T12:33:28.198Z,1976.00
2023-02-26T12:34:28.238Z,1968.00
2023-02-26T12:35:28.549Z,1792.00
2023-02-26T12:36:33.834Z,1784.00
2023-02-26T12:37:28.311Z,1996.00
2023-02-26T12:39:28.366Z,2004.00
2023-02-26T12:40:28.394Z,1968.00
2023-02-26T12:41:28.932Z,1904.00
2023-02-26T12:42:28.443Z,1860.00
2023-02-26T12:43:28.488Z,1840.00
2023-02-26T12:44:28.510Z,1764.00
2023-02-26T12:45:28.530Z,1912.00
2023-02-26T12:46:28.597Z,2012.00
2023-02-26T12:47:28.585Z,2108.00
2023-02-26T12:49:28.941Z,2168.00
2023-02-26T12:50:28.697Z,2236.00
2023-02-26T12:52:28.741Z,2356.00
2023-02-26T12:53:28.756Z,2492.00
2023-02-26T12:54:28.808Z,2660.00
2023-02-26T12:55:29.109Z,2504.00
2023-02-26T12:56:28.844Z,2408.00
2023-02-26T12:57:28.970Z,2076.00
2023-02-26T12:58:28.997Z,2040.00
2023-02-26T12:59:28.932Z,2176.00
2023-02-26T13:00:28.977Z,2256.00
2023-02-26T13:01:29.191Z,2012.00
2023-02-26T13:02:29.312Z,1932.00
2023-02-26T13:03:29.059Z,1968.00
2023-02-26T13:04:29.088Z,1844.00
2023-02-26T13:05:29.104Z,1848.00
2023-02-26T13:06:29.150Z,1920.00
2023-02-26T13:07:29.152Z,1984.00
2023-02-26T13:09:29.505Z,2108.00
2023-02-26T13:10:29.255Z,1980.00
2023-02-26T13:11:29.534Z,2028.00
2023-02-26T13:12:29.288Z,2004.00
2023-02-26T13:13:29.312Z,1972.00
2023-02-26T13:14:29.387Z,2196.00
2023-02-26T13:15:29.377Z,1988.00
2023-02-26T13:16:29.500Z,1836.00
2023-02-26T13:17:29.432Z,2008.00
2023-02-26T13:19:29.491Z,2196.00
2023-02-26T13:24:29.649Z,2012.00
2023-02-26T13:25:29.703Z,1864.00
2023-02-26T13:26:29.684Z,1908.00
2023-02-26T13:27:30.002Z,1952.00
2023-02-26T13:28:29.737Z,1880.00
2023-02-26T13:29:29.760Z,1724.00
2023-02-26T13:30:29.818Z,1832.00
2023-02-26T13:31:30.294Z,1864.00
2023-02-26T13:32:30.015Z,1924.00
2023-02-26T13:33:30.181Z,2008.00
2023-02-26T13:34:29.904Z,2080.00
2023-02-26T13:35:29.938Z,2124.00
2023-02-26T13:36:29.976Z,2096.00
2023-02-26T13:37:30.010Z,2108.00
2023-02-26T13:38:30.010Z,2204.00
2023-02-26T13:39:30.340Z,2296.00
2023-02-26T13:40:30.131Z,2344.00
2023-02-26T13:41:30.099Z,2268.00
2023-02-26T13:42:30.177Z,2208.00
2023-02-26T13:43:30.163Z,2108.00
2023-02-26T13:45:30.588Z,2008.00
2023-02-26T13:46:30.240Z,2000.00
2023-02-26T13:47:30.268Z,2012.00
2023-02-26T13:49:30.316Z,2044.00
2023-02-26T13:50:30.357Z,2020.00
2023-02-26T13:51:30.374Z,2024.00
2023-02-26T13:52:30.407Z,1988.00
2023-02-26T13:53:30.431Z,2040.00
2023-02-26T13:54:30.460Z,2072.00
2023-02-26T13:55:30.494Z,2072.00
2023-02-26T13:56:30.590Z,2068.00
2023-02-26T13:58:30.877Z,2096.00
2023-02-26T14:00:30.645Z,2272.00
2023-02-26T14:01:30.977Z,2408.00
2023-02-26T14:03:30.772Z,2500.00
2023-02-26T14:05:31.079Z,2352.00
2023-02-26T14:07:30.828Z,2192.00
2023-02-26T14:08:30.858Z,2228.00